Time;durP1;ratioP1;P1;durP2;ratioP2;P2;SDS_P1;SDS_P2;PMS_P1;PMS_P2;Temp;Humidity;BMP_temperature;BMP_pressure;BME280_temperature;BME280_humidity;BME280_pressure;Samples;Min_cycle;Max_cycle;Signal;HPM_P1;HPM_P2
2021/04/29 06:43:32;;;;;;;23.75;18.05;;;;;;;;;;4999094;28;20396;-82
2021/04/29 06:45:59;;;;;;;24.85;19.50;;;;;;;;;;5002644;28;20433;-87
2021/04/29 06:48:29;;;;;;;23.27;17.67;;;;;;;;;;4994980;28;20478;-83
2021/04/29 06:50:55;;;;;;;22.90;16.63;;;;;;;;;;4993489;28;20401;-90
2021/04/29 06:53:21;;;;;;;22.90;18.07;;;;;;;;;;4994300;28;20423;-87
2021/04/29 06:55:48;;;;;;;23.20;17.40;;;;;;;;;;5013169;28;20403;-86
2021/04/29 06:58:14;;;;;;;20.65;16.80;;;;;;;;;;5013118;28;20395;-88
2021/04/29 07:00:40;;;;;;;22.73;17.75;;;;;;;;;;5012684;28;20395;-87
2021/04/29 07:03:06;;;;;;;21.92;16.80;;;;;;;;;;5013193;28;20433;-87
2021/04/29 07:05:32;;;;;;;22.10;16.42;;;;;;;;;;5014285;28;20394;-88
2021/04/29 07:07:58;;;;;;;20.63;16.80;;;;;;;;;;5021446;28;20495;-88
2021/04/29 07:10:26;;;;;;;21.83;16.02;;;;;;;;;;5034349;28;20408;-89
2021/04/29 07:12:52;;;;;;;19.88;15.95;;;;;;;;;;5009059;28;20430;-89
2021/04/29 07:15:18;;;;;;;23.57;18.30;;;;;;;;;;5024323;28;20814;-87
2021/04/29 07:17:46;;;;;;;22.80;17.40;;;;;;;;;;5023971;28;20461;-87
2021/04/29 07:20:12;;;;;;;22.90;17.77;;;;;;;;;;5012839;28;20394;-87
2021/04/29 07:22:57;;;;;;;23.58;17.23;;;;;;;;;;5011675;28;20447;-86
2021/04/29 07:28:27;;;;;;;22.35;17.85;;;;;;;;;;5028622;28;20513;-85
2021/04/29 07:30:54;;;;;;;27.20;20.58;;;;;;;;;;5033427;28;20419;-86
2021/04/29 07:33:20;;;;;;;31.38;24.02;;;;;;;;;;5012163;28;20486;-85
2021/04/29 07:35:46;;;;;;;27.67;20.33;;;;;;;;;;5013144;28;20433;-84
2021/04/29 07:38:12;;;;;;;24.33;19.20;;;;;;;;;;5012622;28;20870;-85
2021/04/29 07:40:38;;;;;;;22.10;17.65;;;;;;;;;;5013886;28;20458;-85
2021/04/29 07:43:04;;;;;;;22.52;17.38;;;;;;;;;;4997742;28;20453;-87
2021/04/29 07:45:31;;;;;;;20.65;16.92;;;;;;;;;;4987830;28;20894;-89
2021/04/29 07:47:57;;;;;;;24.27;18.75;;;;;;;;;;4987987;28;20429;-87
2021/04/29 07:50:24;;;;;;;20.60;16.27;;;;;;;;;;4995457;28;20465;-90
2021/04/29 07:52:50;;;;;;;23.63;17.70;;;;;;;;;;4986736;28;20385;-89
2021/04/29 07:55:18;;;;;;;22.35;16.50;;;;;;;;;;4992752;28;20923;-90
2021/04/29 07:57:44;;;;;;;22.48;16.70;;;;;;;;;;4993735;28;20419;-89
2021/04/29 08:00:11;;;;;;;20.05;16.90;;;;;;;;;;4994226;28;20442;-88
2021/04/29 08:02:37;;;;;;;20.63;16.17;;;;;;;;;;5010656;28;20385;-89
2021/04/29 08:05:04;;;;;;;19.40;16.40;;;;;;;;;;5010976;28;20415;-89
2021/04/29 08:07:30;;;;;;;19.95;16.17;;;;;;;;;;4998040;28;20544;-88
2021/04/29 08:09:56;;;;;;;24.57;17.67;;;;;;;;;;4999678;28;20492;-89
2021/04/29 08:12:22;;;;;;;22.30;16.98;;;;;;;;;;5015820;28;20401;-88
2021/04/29 08:14:48;;;;;;;22.38;17.65;;;;;;;;;;4984302;28;20750;-88
2021/04/29 08:17:17;;;;;;;23.70;16.23;;;;;;;;;;5000218;28;20437;-88
2021/04/29 08:19:45;;;;;;;20.95;16.08;;;;;;;;;;4999621;28;20500;-87
2021/04/29 08:22:11;;;;;;;22.65;16.73;;;;;;;;;;4991546;28;20508;-87
2021/04/29 08:24:37;;;;;;;20.35;15.93;;;;;;;;;;4983203;28;20429;-88
2021/04/29 08:27:03;;;;;;;19.90;15.52;;;;;;;;;;4996265;28;20385;-87
2021/04/29 08:29:29;;;;;;;22.25;16.63;;;;;;;;;;4995273;28;20401;-90
2021/04/29 08:31:55;;;;;;;20.05;16.30;;;;;;;;;;4997375;28;20447;-90
2021/04/29 08:34:24;;;;;;;20.67;16.88;;;;;;;;;;5007101;28;20383;-90
2021/04/29 08:36:50;;;;;;;24.10;17.98;;;;;;;;;;5021734;28;20380;-86
2021/04/29 08:39:16;;;;;;;23.65;18.60;;;;;;;;;;5013786;28;20488;-87
2021/04/29 08:41:44;;;;;;;25.35;18.80;;;;;;;;;;4997014;28;20467;-85
2021/04/29 08:44:10;;;;;;;24.27;18.48;;;;;;;;;;5016323;28;20486;-89
2021/04/29 08:46:36;;;;;;;22.55;16.83;;;;;;;;;;5017442;28;20482;-87
2021/04/29 08:49:02;;;;;;;21.80;16.50;;;;;;;;;;5020252;28;20496;-88
2021/04/29 08:51:28;;;;;;;21.60;16.92;;;;;;;;;;5015934;28;20407;-89
2021/04/29 08:53:55;;;;;;;21.80;15.65;;;;;;;;;;5008716;28;20376;-90
2021/04/29 08:56:25;;;;;;;21.60;15.60;;;;;;;;;;5016476;28;20387;-89
2021/04/29 08:58:51;;;;;;;21.40;16.57;;;;;;;;;;5016242;28;20435;-89
2021/04/29 09:01:18;;;;;;;23.85;16.48;;;;;;;;;;5016740;28;20457;-89
2021/04/29 09:03:44;;;;;;;21.13;16.08;;;;;;;;;;5016482;28;20379;-88
2021/04/29 09:06:10;;;;;;;20.02;15.05;;;;;;;;;;5013023;28;20394;-90
2021/04/29 09:08:37;;;;;;;22.85;16.15;;;;;;;;;;5016182;28;20438;-86
2021/04/29 09:11:09;;;;;;;18.98;14.45;;;;;;;;;;5017359;28;20371;-89
2021/04/29 09:13:36;;;;;;;18.35;14.77;;;;;;;;;;5016490;28;21144;-87
2021/04/29 09:16:09;;;;;;;18.35;14.75;;;;;;;;;;5016411;28;20526;-88
2021/04/29 09:18:36;;;;;;;18.67;14.88;;;;;;;;;;5013827;28;20409;-90
2021/04/29 09:21:10;;;;;;;21.05;16.65;;;;;;;;;;5013147;28;22325;-88
2021/04/29 09:23:39;;;;;;;20.40;16.80;;;;;;;;;;5005174;28;20407;-88
2021/04/29 09:26:15;;;;;;;18.55;15.52;;;;;;;;;;4997207;28;20399;-90
2021/04/29 09:28:45;;;;;;;20.92;16.17;;;;;;;;;;5002382;28;20428;-87
2021/04/29 09:31:13;;;;;;;19.15;15.23;;;;;;;;;;5035791;28;20738;-87
2021/04/29 09:33:41;;;;;;;20.13;14.80;;;;;;;;;;5020222;28;20389;-88
2021/04/29 09:36:08;;;;;;;19.80;14.15;;;;;;;;;;4996830;28;21195;-88
2021/04/29 09:38:36;;;;;;;21.05;14.43;;;;;;;;;;5011924;28;20379;-88
2021/04/29 09:41:03;;;;;;;19.17;14.18;;;;;;;;;;5015524;28;20388;-88
2021/04/29 09:43:29;;;;;;;20.35;15.07;;;;;;;;;;5012578;28;20389;-87
2021/04/29 09:45:56;;;;;;;18.23;14.33;;;;;;;;;;4998267;28;20450;-89
2021/04/29 09:48:23;;;;;;;21.33;16.40;;;;;;;;;;5006160;28;20918;-86
2021/04/29 09:50:51;;;;;;;20.20;14.52;;;;;;;;;;5015749;28;20383;-87
2021/04/29 09:53:17;;;;;;;19.02;14.38;;;;;;;;;;5017062;28;20386;-89
2021/04/29 09:55:50;;;;;;;20.55;15.63;;;;;;;;;;5032038;28;20474;-88
2021/04/29 09:58:17;;;;;;;18.55;14.90;;;;;;;;;;5016879;28;20379;-88
2021/04/29 10:00:44;;;;;;;20.15;17.25;;;;;;;;;;4996078;28;20388;-87
2021/04/29 10:03:12;;;;;;;24.45;19.80;;;;;;;;;;5012890;28;20396;-88
2021/04/29 10:05:40;;;;;;;21.80;16.67;;;;;;;;;;5013115;28;20385;-88
2021/04/29 10:08:07;;;;;;;19.30;16.30;;;;;;;;;;5015775;28;20774;-89
2021/04/29 10:10:34;;;;;;;19.10;15.18;;;;;;;;;;5002951;28;20399;-88
2021/04/29 10:13:02;;;;;;;19.95;15.50;;;;;;;;;;5010766;28;20390;-88
2021/04/29 10:15:28;;;;;;;16.42;13.60;;;;;;;;;;5014695;28;20409;-88
2021/04/29 10:17:58;;;;;;;18.63;14.20;;;;;;;;;;5015344;28;20391;-88
2021/04/29 10:20:24;;;;;;;18.05;14.85;;;;;;;;;;5006625;28;20392;-88
2021/04/29 10:22:50;;;;;;;18.08;13.85;;;;;;;;;;5023818;28;20925;-87
2021/04/29 10:25:26;;;;;;;16.38;13.77;;;;;;;;;;5014503;28;20407;-87
2021/04/29 10:27:55;;;;;;;18.73;15.20;;;;;;;;;;5013811;28;20395;-86
2021/04/29 10:30:21;;;;;;;18.38;14.77;;;;;;;;;;5032285;28;20448;-87
2021/04/29 10:32:47;;;;;;;17.10;14.73;;;;;;;;;;5010783;28;21033;-87
2021/04/29 10:35:15;;;;;;;17.33;13.43;;;;;;;;;;5013627;28;20455;-87
2021/04/29 10:37:53;;;;;;;19.75;13.50;;;;;;;;;;5013820;28;20728;-87
2021/04/29 10:40:29;;;;;;;16.60;11.98;;;;;;;;;;5016987;28;20547;-87
2021/04/29 10:42:55;;;;;;;16.77;13.57;;;;;;;;;;5031581;28;21059;-87
2021/04/29 10:45:21;;;;;;;16.00;13.57;;;;;;;;;;5013325;28;20407;-88
2021/04/29 10:47:47;;;;;;;16.10;13.90;;;;;;;;;;5013307;28;20419;-87
2021/04/29 10:50:18;;;;;;;16.97;14.67;;;;;;;;;;5013064;28;20406;-86
2021/04/29 10:52:46;;;;;;;16.77;14.25;;;;;;;;;;5034526;28;21079;-88
2021/04/29 10:55:23;;;;;;;16.80;13.30;;;;;;;;;;5003194;28;20749;-87
2021/04/29 10:57:49;;;;;;;16.30;12.68;;;;;;;;;;5004302;28;20466;-86
2021/04/29 11:00:15;;;;;;;17.52;12.85;;;;;;;;;;5031448;28;20522;-85
2021/04/29 11:02:41;;;;;;;18.00;14.15;;;;;;;;;;5010891;28;20412;-89
2021/04/29 11:05:08;;;;;;;17.23;14.15;;;;;;;;;;5000050;28;20481;-87
2021/04/29 11:07:45;;;;;;;18.30;13.75;;;;;;;;;;5007133;28;20407;-87
2021/04/29 11:10:19;;;;;;;16.70;13.65;;;;;;;;;;5011439;28;20402;-86
2021/04/29 11:12:49;;;;;;;18.33;14.00;;;;;;;;;;5009539;28;20395;-88
2021/04/29 11:15:18;;;;;;;17.43;14.70;;;;;;;;;;5008913;28;20414;-86
2021/04/29 11:17:44;;;;;;;18.13;14.90;;;;;;;;;;5012104;28;20823;-89
2021/04/29 11:20:10;;;;;;;21.13;16.58;;;;;;;;;;5027533;28;20486;-87
2021/04/29 11:22:42;;;;;;;17.77;14.57;;;;;;;;;;5007047;28;20493;-87
2021/04/29 11:25:09;;;;;;;18.73;15.73;;;;;;;;;;5008128;28;20838;-83
2021/04/29 11:27:38;;;;;;;17.17;14.55;;;;;;;;;;5027545;28;20399;-88
2021/04/29 11:30:09;;;;;;;16.30;14.20;;;;;;;;;;5014473;28;20484;-85
2021/04/29 11:33:12;;;;;;;17.00;14.05;;;;;;;;;;5028300;28;20457;-86
2021/04/29 11:35:40;;;;;;;18.67;14.70;;;;;;;;;;5031530;28;20882;-87
2021/04/29 11:38:07;;;;;;;16.85;13.52;;;;;;;;;;5017226;28;20525;-85
2021/04/29 11:40:34;;;;;;;19.77;14.55;;;;;;;;;;5013837;28;20386;-85
2021/04/29 11:43:00;;;;;;;17.35;13.63;;;;;;;;;;5021060;28;20409;-85
2021/04/29 11:45:32;;;;;;;17.42;13.57;;;;;;;;;;5018249;28;20392;-85
2021/04/29 11:48:01;;;;;;;15.40;12.60;;;;;;;;;;4997434;28;20438;-89
2021/04/29 11:50:27;;;;;;;16.40;11.87;;;;;;;;;;5019826;28;20570;-89
2021/04/29 11:53:03;;;;;;;12.27;10.50;;;;;;;;;;5008139;28;20399;-87
2021/04/29 11:55:29;;;;;;;12.25;8.77;;;;;;;;;;5009445;28;20486;-84
2021/04/29 11:58:02;;;;;;;11.10;8.45;;;;;;;;;;5025246;28;20452;-83
2021/04/29 12:00:33;;;;;;;11.43;8.15;;;;;;;;;;5030163;28;20498;-85
2021/04/29 12:02:59;;;;;;;12.15;8.18;;;;;;;;;;5013987;28;20443;-85
2021/04/29 12:05:32;;;;;;;11.43;8.43;;;;;;;;;;5030839;28;20398;-84
2021/04/29 12:07:58;;;;;;;9.10;7.07;;;;;;;;;;5019557;28;20402;-85
2021/04/29 12:10:24;;;;;;;9.40;7.18;;;;;;;;;;5020181;28;20422;-84
2021/04/29 12:12:50;;;;;;;9.77;7.07;;;;;;;;;;5027219;28;20763;-84
2021/04/29 12:15:17;;;;;;;8.93;6.68;;;;;;;;;;5030127;28;20895;-83
2021/04/29 12:17:43;;;;;;;8.13;5.90;;;;;;;;;;5034964;28;20463;-83
2021/04/29 12:20:09;;;;;;;7.65;5.93;;;;;;;;;;5016879;28;20376;-84
2021/04/29 12:22:35;;;;;;;8.70;6.10;;;;;;;;;;5011961;28;20892;-86
2021/04/29 12:25:01;;;;;;;7.45;5.53;;;;;;;;;;5013535;28;20938;-88
2021/04/29 12:27:27;;;;;;;7.45;5.18;;;;;;;;;;5008942;28;20413;-86
2021/04/29 12:30:07;;;;;;;6.55;4.82;;;;;;;;;;4996055;28;20405;-88
2021/04/29 12:32:43;;;;;;;5.68;3.90;;;;;;;;;;5016099;28;20390;-83
2021/04/29 12:35:10;;;;;;;6.87;4.23;;;;;;;;;;5016365;28;20815;-84
2021/04/29 12:37:36;;;;;;;6.13;3.40;;;;;;;;;;5030904;28;20417;-87
2021/04/29 12:40:02;;;;;;;6.65;3.42;;;;;;;;;;5023986;28;20412;-87
2021/04/29 12:42:28;;;;;;;6.67;3.70;;;;;;;;;;5015893;28;20423;-86
2021/04/29 12:44:57;;;;;;;6.90;3.97;;;;;;;;;;5015678;28;20421;-86
2021/04/29 12:47:25;;;;;;;6.80;4.18;;;;;;;;;;5020391;28;20499;-86
2021/04/29 12:50:03;;;;;;;8.45;4.38;;;;;;;;;;5016496;28;20411;-85
2021/04/29 12:52:29;;;;;;;6.60;4.00;;;;;;;;;;5032182;28;20401;-86
2021/04/29 12:54:55;;;;;;;5.78;4.00;;;;;;;;;;5019058;28;20732;-88
2021/04/29 12:57:22;;;;;;;6.50;4.18;;;;;;;;;;5014273;28;20482;-86
2021/04/29 12:59:49;;;;;;;6.28;3.95;;;;;;;;;;5012717;28;20400;-81
2021/04/29 13:02:19;;;;;;;5.90;3.83;;;;;;;;;;5017973;28;20395;-84
2021/04/29 13:04:45;;;;;;;6.07;3.60;;;;;;;;;;5026608;28;20751;-83
2021/04/29 13:07:20;;;;;;;5.30;3.15;;;;;;;;;;5015876;28;20418;-83
2021/04/29 13:09:49;;;;;;;5.37;3.37;;;;;;;;;;5015571;28;20464;-86
2021/04/29 13:12:16;;;;;;;5.95;3.05;;;;;;;;;;5020300;28;20924;-85
2021/04/29 13:14:43;;;;;;;6.25;3.30;;;;;;;;;;4996291;28;20795;-81
2021/04/29 13:17:19;;;;;;;7.15;3.80;;;;;;;;;;5008334;28;20397;-83
2021/04/29 13:19:55;;;;;;;6.88;4.15;;;;;;;;;;5021023;28;20404;-83
2021/04/29 13:22:23;;;;;;;7.80;4.50;;;;;;;;;;5007395;28;20508;-81
2021/04/29 13:24:49;;;;;;;6.53;4.45;;;;;;;;;;5021071;28;21063;-82
2021/04/29 13:27:15;;;;;;;9.00;5.30;;;;;;;;;;5014561;28;20433;-84
2021/04/29 13:29:42;;;;;;;9.83;6.53;;;;;;;;;;5023886;28;20962;-87
2021/04/29 13:32:08;;;;;;;9.15;5.63;;;;;;;;;;5015514;28;20384;-84
2021/04/29 13:34:34;;;;;;;8.52;5.72;;;;;;;;;;5025297;28;20464;-86
2021/04/29 13:37:02;;;;;;;11.15;7.75;;;;;;;;;;5022049;28;20389;-83
2021/04/29 13:39:28;;;;;;;10.48;6.43;;;;;;;;;;5001660;28;20412;-86
2021/04/29 13:41:54;;;;;;;10.43;6.60;;;;;;;;;;5001004;28;20431;-84
2021/04/29 13:44:20;;;;;;;8.93;6.50;;;;;;;;;;5016949;28;20402;-86
2021/04/29 13:46:46;;;;;;;10.17;6.60;;;;;;;;;;5007656;28;20405;-85
2021/04/29 13:49:12;;;;;;;9.90;6.38;;;;;;;;;;5034865;28;20405;-83
2021/04/29 13:51:39;;;;;;;9.90;7.10;;;;;;;;;;5018767;28;20926;-82
2021/04/29 13:54:05;;;;;;;11.10;7.05;;;;;;;;;;5010197;28;20414;-83
2021/04/29 13:56:31;;;;;;;11.57;7.93;;;;;;;;;;5041456;28;20397;-82
2021/04/29 13:58:57;;;;;;;10.52;8.07;;;;;;;;;;5010689;28;20411;-84
2021/04/29 14:01:23;;;;;;;12.68;8.93;;;;;;;;;;5018391;28;20404;-90
2021/04/29 14:03:50;;;;;;;12.75;8.98;;;;;;;;;;5014009;28;20491;-84
2021/04/29 14:06:17;;;;;;;13.68;9.48;;;;;;;;;;5027970;28;20418;-85
2021/04/29 14:08:44;;;;;;;14.68;9.45;;;;;;;;;;5036677;28;20412;-86
2021/04/29 14:11:10;;;;;;;15.60;10.00;;;;;;;;;;5033293;28;20403;-84
2021/04/29 14:13:36;;;;;;;14.30;10.10;;;;;;;;;;5021776;28;20412;-87
2021/04/29 14:16:03;;;;;;;13.85;9.23;;;;;;;;;;5020165;28;20402;-82
2021/04/29 14:18:29;;;;;;;13.43;9.48;;;;;;;;;;5009640;28;20414;-86
2021/04/29 14:20:58;;;;;;;13.30;9.43;;;;;;;;;;5007246;28;20403;-83
2021/04/29 14:23:24;;;;;;;16.55;10.85;;;;;;;;;;5029076;28;20420;-83
2021/04/29 14:25:50;;;;;;;15.23;9.95;;;;;;;;;;5005499;28;20391;-82
2021/04/29 14:28:16;;;;;;;13.00;9.23;;;;;;;;;;5004402;28;20434;-85
2021/04/29 14:30:42;;;;;;;16.00;10.07;;;;;;;;;;5013782;28;20492;-85
2021/04/29 14:33:08;;;;;;;14.77;9.88;;;;;;;;;;5011923;28;20966;-83
2021/04/29 14:35:34;;;;;;;13.65;10.82;;;;;;;;;;5020757;28;20418;-84
2021/04/29 14:38:00;;;;;;;18.90;12.68;;;;;;;;;;5007170;28;20399;-82
2021/04/29 14:40:26;;;;;;;21.15;14.57;;;;;;;;;;5010926;28;20425;-83
2021/04/29 14:42:52;;;;;;;19.77;14.67;;;;;;;;;;5020975;28;20573;-83
2021/04/29 14:45:19;;;;;;;19.70;15.25;;;;;;;;;;4996367;28;20403;-85
2021/04/29 14:47:49;;;;;;;20.83;15.00;;;;;;;;;;5013250;28;20395;-84
2021/04/29 14:50:15;;;;;;;20.58;14.25;;;;;;;;;;5013432;28;20454;-84
2021/04/29 14:52:41;;;;;;;23.42;14.50;;;;;;;;;;5010221;28;20425;-85
2021/04/29 14:55:07;;;;;;;19.70;14.48;;;;;;;;;;5013363;28;20395;-85
2021/04/29 14:57:33;;;;;;;21.90;14.57;;;;;;;;;;5016200;28;20381;-88
2021/04/29 14:59:59;;;;;;;20.98;15.75;;;;;;;;;;5014297;28;20403;-84
2021/04/29 15:02:26;;;;;;;21.90;14.98;;;;;;;;;;5013061;28;20410;-85
2021/04/29 15:04:52;;;;;;;20.48;16.13;;;;;;;;;;5025298;28;20489;-84
2021/04/29 15:07:20;;;;;;;20.67;14.97;;;;;;;;;;5011959;28;20568;-86
2021/04/29 15:09:47;;;;;;;24.55;15.88;;;;;;;;;;5005171;28;20412;-86
2021/04/29 15:12:13;;;;;;;17.55;14.38;;;;;;;;;;4993980;28;20404;-84
2021/04/29 15:14:39;;;;;;;21.95;15.07;;;;;;;;;;4993996;28;20412;-83
2021/04/29 15:17:05;;;;;;;21.67;15.43;;;;;;;;;;5011986;28;20395;-83
2021/04/29 15:19:31;;;;;;;19.17;14.50;;;;;;;;;;5013788;28;20502;-82
2021/04/29 15:21:57;;;;;;;26.03;15.20;;;;;;;;;;5012616;28;20486;-87
2021/04/29 15:24:23;;;;;;;21.92;15.65;;;;;;;;;;5012134;28;20406;-85
2021/04/29 15:26:49;;;;;;;21.25;14.57;;;;;;;;;;5019666;28;20401;-82
2021/04/29 15:29:15;;;;;;;21.40;15.20;;;;;;;;;;5011538;28;20438;-86
2021/04/29 15:31:41;;;;;;;22.23;14.65;;;;;;;;;;5002123;28;20401;-88
2021/04/29 15:34:07;;;;;;;21.50;15.75;;;;;;;;;;5014703;28;20980;-88
2021/04/29 15:36:35;;;;;;;21.65;15.50;;;;;;;;;;5030775;28;20410;-88
2021/04/29 15:39:01;;;;;;;18.75;15.02;;;;;;;;;;5014286;28;20412;-88
2021/04/29 15:41:28;;;;;;;20.00;14.73;;;;;;;;;;5008711;28;20722;-85
2021/04/29 15:43:54;;;;;;;20.88;14.27;;;;;;;;;;5017122;28;20461;-88
2021/04/29 15:46:21;;;;;;;22.35;15.43;;;;;;;;;;5013486;28;20429;-85
2021/04/29 15:48:47;;;;;;;24.37;15.20;;;;;;;;;;4999140;28;20412;-87
2021/04/29 15:51:17;;;;;;;21.50;15.60;;;;;;;;;;5026308;28;20394;-87
2021/04/29 15:53:46;;;;;;;23.10;16.98;;;;;;;;;;5021292;28;20396;-85
2021/04/29 15:56:14;;;;;;;23.42;16.55;;;;;;;;;;5010612;28;20410;-88
2021/04/29 15:58:40;;;;;;;24.10;16.38;;;;;;;;;;5020840;28;20410;-86
2021/04/29 16:01:07;;;;;;;21.90;16.50;;;;;;;;;;5014507;28;20399;-87
2021/04/29 16:03:33;;;;;;;23.90;16.83;;;;;;;;;;5017421;28;20482;-90
2021/04/29 16:05:59;;;;;;;23.33;16.00;;;;;;;;;;5039195;28;20410;-85
2021/04/29 16:08:27;;;;;;;22.23;16.42;;;;;;;;;;5022625;28;20533;-87
2021/04/29 16:10:53;;;;;;;22.63;16.15;;;;;;;;;;5017270;28;20712;-85
2021/04/29 16:13:19;;;;;;;23.02;16.45;;;;;;;;;;5016882;28;20493;-85
2021/04/29 16:15:45;;;;;;;22.10;15.82;;;;;;;;;;5016892;28;20746;-86
2021/04/29 16:18:11;;;;;;;22.48;16.38;;;;;;;;;;5016054;28;20453;-85
2021/04/29 16:20:37;;;;;;;25.73;17.07;;;;;;;;;;5013831;28;20414;-86
2021/04/29 16:23:04;;;;;;;21.98;16.33;;;;;;;;;;5014663;28;20478;-84
2021/04/29 16:25:30;;;;;;;26.60;18.52;;;;;;;;;;5015892;28;20395;-84
2021/04/29 16:27:57;;;;;;;20.23;16.40;;;;;;;;;;5016693;28;20485;-88
2021/04/29 16:30:23;;;;;;;22.40;16.70;;;;;;;;;;5003668;28;20936;-85
2021/04/29 16:32:50;;;;;;;22.87;18.03;;;;;;;;;;5013928;28;20739;-90
2021/04/29 16:35:17;;;;;;;24.60;18.73;;;;;;;;;;5023432;28;20894;-87
2021/04/29 16:37:44;;;;;;;25.90;18.83;;;;;;;;;;5015754;28;20744;-87
2021/04/29 16:40:10;;;;;;;24.30;17.25;;;;;;;;;;4993654;28;20397;-86
2021/04/29 16:42:37;;;;;;;26.65;18.88;;;;;;;;;;5009300;28;20761;-89
2021/04/29 16:45:06;;;;;;;26.05;18.52;;;;;;;;;;5010994;28;20434;-86
2021/04/29 16:47:32;;;;;;;25.48;18.98;;;;;;;;;;5011888;28;20403;-88
2021/04/29 16:49:58;;;;;;;27.83;19.30;;;;;;;;;;4995464;28;20528;-88
2021/04/29 16:52:24;;;;;;;23.48;18.55;;;;;;;;;;5005835;28;20734;-90
2021/04/29 16:54:50;;;;;;;24.08;18.95;;;;;;;;;;4999308;28;21291;-88
2021/04/29 16:57:16;;;;;;;24.55;18.02;;;;;;;;;;4996738;28;20443;-87
2021/04/29 16:59:42;;;;;;;24.65;19.13;;;;;;;;;;5015609;28;20406;-87
2021/04/29 17:02:08;;;;;;;26.42;20.00;;;;;;;;;;5020468;28;20974;-89
2021/04/29 17:04:34;;;;;;;26.40;21.10;;;;;;;;;;4997328;28;20610;-87
2021/04/29 17:07:00;;;;;;;27.98;21.42;;;;;;;;;;5016043;28;21014;-87
2021/04/29 17:09:26;;;;;;;28.00;20.00;;;;;;;;;;5000478;28;20487;-85
2021/04/29 17:11:52;;;;;;;25.23;20.33;;;;;;;;;;4999470;28;20400;-85
2021/04/29 17:14:19;;;;;;;26.58;19.67;;;;;;;;;;5024273;28;20882;-88
2021/04/29 17:16:47;;;;;;;28.52;20.25;;;;;;;;;;5010676;28;20399;-88
2021/04/29 17:19:14;;;;;;;25.42;19.63;;;;;;;;;;5007399;28;20417;-88
2021/04/29 17:21:40;;;;;;;24.73;19.92;;;;;;;;;;5007111;28;20485;-84
2021/04/29 17:24:06;;;;;;;27.80;21.23;;;;;;;;;;5007837;28;20403;-85
2021/04/29 17:26:32;;;;;;;26.48;20.92;;;;;;;;;;5010034;28;20417;-86
2021/04/29 17:28:58;;;;;;;26.67;20.17;;;;;;;;;;5011734;28;20497;-89
2021/04/29 17:31:24;;;;;;;27.33;21.08;;;;;;;;;;5008962;28;20762;-88
2021/04/29 17:33:50;;;;;;;29.70;22.05;;;;;;;;;;5004201;28;20501;-88
2021/04/29 17:36:16;;;;;;;27.75;21.60;;;;;;;;;;5025763;28;20482;-87
2021/04/29 17:38:42;;;;;;;28.92;21.58;;;;;;;;;;5010910;28;20428;-87
2021/04/29 17:41:08;;;;;;;28.60;21.63;;;;;;;;;;5024352;28;20403;-84
2021/04/29 17:43:34;;;;;;;28.20;22.00;;;;;;;;;;5033260;28;20403;-87
2021/04/29 17:46:00;;;;;;;31.17;23.17;;;;;;;;;;5040490;28;20480;-89
2021/04/29 17:48:26;;;;;;;32.53;22.85;;;;;;;;;;5015768;28;20407;-86
2021/04/29 17:50:52;;;;;;;28.25;21.65;;;;;;;;;;5009591;28;20482;-84
2021/04/29 17:53:18;;;;;;;31.73;23.27;;;;;;;;;;5018165;28;20502;-86
2021/04/29 17:55:45;;;;;;;30.38;23.48;;;;;;;;;;5014732;28;20411;-86
2021/04/29 17:58:11;;;;;;;30.58;23.13;;;;;;;;;;5014531;28;20739;-88
2021/04/29 18:00:37;;;;;;;29.42;23.00;;;;;;;;;;5015321;28;20890;-87
2021/04/29 18:03:03;;;;;;;30.75;23.60;;;;;;;;;;5014293;28;20418;-88
2021/04/29 18:05:29;;;;;;;31.55;24.60;;;;;;;;;;5013899;28;20443;-84
2021/04/29 18:07:55;;;;;;;31.17;24.10;;;;;;;;;;5023788;28;20434;-83
2021/04/29 18:10:22;;;;;;;31.02;24.75;;;;;;;;;;5032439;28;20952;-84
2021/04/29 18:12:48;;;;;;;34.50;24.70;;;;;;;;;;5011104;28;20407;-88
2021/04/29 18:15:16;;;;;;;30.77;24.58;;;;;;;;;;5014526;28;20863;-84
2021/04/29 18:17:42;;;;;;;29.00;24.85;;;;;;;;;;5004804;28;20416;-83
2021/04/29 18:20:09;;;;;;;31.63;24.17;;;;;;;;;;5009440;28;20407;-82
2021/04/29 18:22:35;;;;;;;31.77;25.63;;;;;;;;;;5018057;28;20403;-86
2021/04/29 18:25:01;;;;;;;30.40;25.42;;;;;;;;;;5003675;28;20958;-86
2021/04/29 18:27:28;;;;;;;31.90;25.25;;;;;;;;;;5004175;28;20492;-83
2021/04/29 18:29:54;;;;;;;29.77;23.88;;;;;;;;;;5001463;28;20934;-86
2021/04/29 18:32:20;;;;;;;30.40;26.23;;;;;;;;;;5027001;28;20397;-88
2021/04/29 18:34:46;;;;;;;28.40;24.50;;;;;;;;;;5018222;28;20385;-83
2021/04/29 18:37:12;;;;;;;29.27;24.55;;;;;;;;;;5029125;28;20889;-86
2021/04/29 18:39:39;;;;;;;30.73;23.98;;;;;;;;;;5018207;28;20473;-88
2021/04/29 18:42:05;;;;;;;29.40;24.33;;;;;;;;;;5006629;28;20437;-87
2021/04/29 18:44:31;;;;;;;27.77;23.45;;;;;;;;;;5008373;28;20397;-86
2021/04/29 18:46:57;;;;;;;29.23;22.67;;;;;;;;;;4996230;28;20505;-84
2021/04/29 18:49:23;;;;;;;29.70;22.05;;;;;;;;;;5005565;28;20413;-87
2021/04/29 18:51:49;;;;;;;31.00;22.60;;;;;;;;;;5028426;28;20429;-85
2021/04/29 18:54:15;;;;;;;32.47;24.10;;;;;;;;;;5029905;28;20464;-83
2021/04/29 18:56:42;;;;;;;31.05;22.75;;;;;;;;;;5014171;28;20482;-86
2021/04/29 18:59:09;;;;;;;28.92;22.42;;;;;;;;;;5020681;28;20774;-87
2021/04/29 19:01:35;;;;;;;32.30;23.33;;;;;;;;;;5014739;28;20399;-86
2021/04/29 19:04:01;;;;;;;31.47;23.13;;;;;;;;;;5025189;28;21003;-84
2021/04/29 19:06:27;;;;;;;32.55;23.10;;;;;;;;;;5010340;28;20407;-86
2021/04/29 19:08:54;;;;;;;33.30;22.25;;;;;;;;;;5006664;28;20411;-85
2021/04/29 19:11:20;;;;;;;31.35;22.98;;;;;;;;;;5031654;28;20375;-85
2021/04/29 19:13:46;;;;;;;35.10;22.98;;;;;;;;;;5031203;28;20395;-86
2021/04/29 19:16:12;;;;;;;33.80;22.63;;;;;;;;;;5010362;28;20400;-85
2021/04/29 19:18:38;;;;;;;33.05;22.75;;;;;;;;;;5013443;28;20482;-84
2021/04/29 19:24:08;;;;;;;30.35;22.38;;;;;;;;;;5024130;28;20447;-84
2021/04/29 19:26:34;;;;;;;31.95;22.65;;;;;;;;;;5004655;28;20400;-83
2021/04/29 19:29:00;;;;;;;32.60;22.05;;;;;;;;;;5020324;28;20430;-83
2021/04/29 19:31:26;;;;;;;34.35;22.98;;;;;;;;;;5019214;28;20395;-84
2021/04/29 19:33:52;;;;;;;38.22;23.33;;;;;;;;;;5011820;28;20770;-85
2021/04/29 19:36:18;;;;;;;35.78;22.65;;;;;;;;;;5016550;28;20394;-85
2021/04/29 19:38:45;;;;;;;35.87;22.43;;;;;;;;;;5017359;28;21004;-86
2021/04/29 19:41:11;;;;;;;35.78;23.40;;;;;;;;;;5010052;28;20403;-83
2021/04/29 19:43:37;;;;;;;34.10;21.20;;;;;;;;;;5031898;28;20433;-85
2021/04/29 19:46:04;;;;;;;35.92;21.15;;;;;;;;;;5016173;28;20416;-85
2021/04/29 19:48:30;;;;;;;32.63;21.67;;;;;;;;;;5019752;28;20930;-84
2021/04/29 19:50:56;;;;;;;34.25;21.83;;;;;;;;;;5009865;28;20403;-85
2021/04/29 19:53:22;;;;;;;34.17;21.67;;;;;;;;;;5032856;28;20397;-84
2021/04/29 19:55:49;;;;;;;31.43;21.50;;;;;;;;;;5025946;28;20487;-87
2021/04/29 19:58:15;;;;;;;38.90;21.67;;;;;;;;;;5013179;28;20395;-85
2021/04/29 20:00:41;;;;;;;34.42;20.45;;;;;;;;;;5013365;28;20411;-85
2021/04/29 20:03:07;;;;;;;36.22;20.40;;;;;;;;;;5012797;28;20409;-88
2021/04/29 20:05:34;;;;;;;36.13;20.73;;;;;;;;;;5013627;28;20396;-87
2021/04/29 20:08:00;;;;;;;35.53;20.95;;;;;;;;;;5013277;28;20754;-85
2021/04/29 20:10:27;;;;;;;34.15;20.20;;;;;;;;;;5026163;28;20488;-86
2021/04/29 20:12:53;;;;;;;39.22;20.83;;;;;;;;;;5008766;28;20414;-87
2021/04/29 20:15:19;;;;;;;31.33;19.27;;;;;;;;;;5015370;28;20411;-87
2021/04/29 20:17:45;;;;;;;36.77;19.97;;;;;;;;;;5024031;28;20426;-89
2021/04/29 20:20:11;;;;;;;34.88;19.75;;;;;;;;;;5013543;28;20423;-89
2021/04/29 20:22:38;;;;;;;32.35;18.88;;;;;;;;;;5018826;28;20410;-87
2021/04/29 20:25:07;;;;;;;33.42;18.40;;;;;;;;;;5031147;28;20416;-89
2021/04/29 20:27:33;;;;;;;31.85;18.15;;;;;;;;;;5029398;28;20403;-89
2021/04/29 20:29:59;;;;;;;35.78;18.23;;;;;;;;;;5003468;28;20430;-87
2021/04/29 20:32:25;;;;;;;29.90;17.50;;;;;;;;;;5007520;28;20447;-89
2021/04/29 20:34:51;;;;;;;37.75;19.58;;;;;;;;;;5011634;28;20391;-89
2021/04/29 20:37:17;;;;;;;35.05;18.42;;;;;;;;;;5009662;28;20392;-85
2021/04/29 20:39:43;;;;;;;34.05;17.75;;;;;;;;;;5013000;28;20401;-89
2021/04/29 20:42:09;;;;;;;36.05;18.60;;;;;;;;;;5016091;28;20507;-86
2021/04/29 20:44:36;;;;;;;34.45;19.15;;;;;;;;;;5014531;28;20475;-87
2021/04/29 20:47:03;;;;;;;34.10;18.27;;;;;;;;;;5015793;28;20398;-86
2021/04/29 20:49:29;;;;;;;35.20;18.30;;;;;;;;;;5013950;28;20422;-89
2021/04/29 20:51:56;;;;;;;33.60;18.40;;;;;;;;;;5008281;28;20663;-88
2021/04/29 20:54:21;;;;;;;33.33;17.98;;;;;;;;;;5006167;28;20431;-89
2021/04/29 20:56:48;;;;;;;35.92;18.55;;;;;;;;;;5010478;28;21113;-87
2021/04/29 20:59:14;;;;;;;36.95;18.40;;;;;;;;;;5013936;28;20484;-89
2021/04/29 21:01:40;;;;;;;33.92;17.35;;;;;;;;;;5014263;28;20414;-84
2021/04/29 21:04:07;;;;;;;31.33;16.87;;;;;;;;;;5013753;28;20400;-90
2021/04/29 21:06:33;;;;;;;32.78;16.90;;;;;;;;;;5011077;28;20485;-85
2021/04/29 21:08:59;;;;;;;34.92;17.83;;;;;;;;;;5017855;28;20855;-88